sensor_id;sensor_type;location;lat;lon;timestamp;P1;durP1;ratioP1;P2;durP2;ratioP2
32333;SDS011;18810;53.040;8.850;2023-12-04T00:01:49;58.35;;;28.52;;
32333;SDS011;18810;53.040;8.850;2023-12-04T00:04:15;56.17;;;27.10;;
32333;SDS011;18810;53.040;8.850;2023-12-04T00:06:41;59.08;;;26.73;;
32333;SDS011;18810;53.040;8.850;2023-12-04T00:09:07;55.03;;;26.38;;
32333;SDS011;18810;53.040;8.850;2023-12-04T00:11:32;55.28;;;26.40;;
32333;SDS011;18810;53.040;8.850;2023-12-04T00:13:58;55.30;;;25.75;;
32333;SDS011;18810;53.040;8.850;2023-12-04T00:16:25;56.13;;;26.30;;
32333;SDS011;18810;53.040;8.850;2023-12-04T00:18:51;56.92;;;24.83;;
32333;SDS011;18810;53.040;8.850;2023-12-04T00:21:16;53.83;;;26.63;;
32333;SDS011;18810;53.040;8.850;2023-12-04T00:23:42;51.30;;;23.98;;
32333;SDS011;18810;53.040;8.850;2023-12-04T00:26:08;52.63;;;25.27;;
32333;SDS011;18810;53.040;8.850;2023-12-04T00:28:37;56.28;;;24.38;;
32333;SDS011;18810;53.040;8.850;2023-12-04T00:31:02;50.20;;;26.40;;
32333;SDS011;18810;53.040;8.850;2023-12-04T00:33:28;53.38;;;25.40;;
32333;SDS011;18810;53.040;8.850;2023-12-04T00:35:54;56.13;;;26.45;;
32333;SDS011;18810;53.040;8.850;2023-12-04T00:38:19;51.13;;;25.38;;
32333;SDS011;18810;53.040;8.850;2023-12-04T00:40:45;56.20;;;26.67;;
32333;SDS011;18810;53.040;8.850;2023-12-04T00:43:11;50.53;;;24.45;;
32333;SDS011;18810;53.040;8.850;2023-12-04T00:45:37;49.47;;;25.40;;
32333;SDS011;18810;53.040;8.850;2023-12-04T00:48:02;57.85;;;26.20;;
32333;SDS011;18810;53.040;8.850;2023-12-04T00:50:29;55.67;;;26.95;;
32333;SDS011;18810;53.040;8.850;2023-12-04T00:52:54;57.25;;;26.40;;
32333;SDS011;18810;53.040;8.850;2023-12-04T00:55:20;58.03;;;26.75;;
32333;SDS011;18810;53.040;8.850;2023-12-04T00:57:46;52.10;;;25.67;;
32333;SDS011;18810;53.040;8.850;2023-12-04T01:00:12;54.17;;;25.25;;
32333;SDS011;18810;53.040;8.850;2023-12-04T01:02:38;61.55;;;26.95;;
32333;SDS011;18810;53.040;8.850;2023-12-04T01:05:03;61.08;;;25.85;;
32333;SDS011;18810;53.040;8.850;2023-12-04T01:07:29;51.03;;;25.90;;
32333;SDS011;18810;53.040;8.850;2023-12-04T01:09:55;53.97;;;26.40;;
32333;SDS011;18810;53.040;8.850;2023-12-04T01:12:21;57.20;;;26.27;;
32333;SDS011;18810;53.040;8.850;2023-12-04T01:14:47;51.20;;;25.65;;
32333;SDS011;18810;53.040;8.850;2023-12-04T01:17:12;53.83;;;24.75;;
32333;SDS011;18810;53.040;8.850;2023-12-04T01:19:38;53.90;;;25.27;;
32333;SDS011;18810;53.040;8.850;2023-12-04T01:22:04;53.72;;;25.38;;
32333;SDS011;18810;53.040;8.850;2023-12-04T01:24:30;53.15;;;23.92;;
32333;SDS011;18810;53.040;8.850;2023-12-04T01:26:56;59.17;;;25.60;;
32333;SDS011;18810;53.040;8.850;2023-12-04T01:29:22;53.97;;;25.20;;
32333;SDS011;18810;53.040;8.850;2023-12-04T01:31:47;54.83;;;24.95;;
32333;SDS011;18810;53.040;8.850;2023-12-04T01:34:13;51.00;;;25.05;;
32333;SDS011;18810;53.040;8.850;2023-12-04T01:36:42;55.55;;;24.15;;
32333;SDS011;18810;53.040;8.850;2023-12-04T01:39:07;49.75;;;23.95;;
32333;SDS011;18810;53.040;8.850;2023-12-04T01:41:33;52.53;;;25.02;;
32333;SDS011;18810;53.040;8.850;2023-12-04T01:43:59;52.90;;;24.45;;
32333;SDS011;18810;53.040;8.850;2023-12-04T01:46:25;50.75;;;24.25;;
32333;SDS011;18810;53.040;8.850;2023-12-04T01:48:51;55.35;;;24.92;;
32333;SDS011;18810;53.040;8.850;2023-12-04T01:51:18;54.25;;;24.58;;
32333;SDS011;18810;53.040;8.850;2023-12-04T01:53:45;47.50;;;23.30;;
32333;SDS011;18810;53.040;8.850;2023-12-04T01:56:13;52.30;;;24.58;;
32333;SDS011;18810;53.040;8.850;2023-12-04T01:58:40;54.45;;;23.58;;
32333;SDS011;18810;53.040;8.850;2023-12-04T02:01:06;50.40;;;22.65;;
32333;SDS011;18810;53.040;8.850;2023-12-04T02:03:32;49.97;;;23.52;;
32333;SDS011;18810;53.040;8.850;2023-12-04T02:06:01;46.90;;;23.02;;
32333;SDS011;18810;53.040;8.850;2023-12-04T02:08:29;50.55;;;22.83;;
32333;SDS011;18810;53.040;8.850;2023-12-04T02:10:58;53.30;;;24.95;;
32333;SDS011;18810;53.040;8.850;2023-12-04T02:13:24;48.95;;;22.95;;
32333;SDS011;18810;53.040;8.850;2023-12-04T02:15:51;45.20;;;21.95;;
32333;SDS011;18810;53.040;8.850;2023-12-04T02:18:19;52.92;;;23.63;;
32333;SDS011;18810;53.040;8.850;2023-12-04T02:20:47;52.38;;;24.08;;
32333;SDS011;18810;53.040;8.850;2023-12-04T02:23:12;50.35;;;22.85;;
32333;SDS011;18810;53.040;8.850;2023-12-04T02:25:38;47.35;;;22.88;;
32333;SDS011;18810;53.040;8.850;2023-12-04T02:28:08;47.38;;;22.80;;
32333;SDS011;18810;53.040;8.850;2023-12-04T02:30:39;47.08;;;22.48;;
32333;SDS011;18810;53.040;8.850;2023-12-04T02:33:08;49.50;;;22.02;;
32333;SDS011;18810;53.040;8.850;2023-12-04T02:35:36;49.22;;;22.75;;
32333;SDS011;18810;53.040;8.850;2023-12-04T02:38:04;45.03;;;22.10;;
32333;SDS011;18810;53.040;8.850;2023-12-04T02:40:31;43.08;;;20.58;;
32333;SDS011;18810;53.040;8.850;2023-12-04T02:42:56;52.05;;;23.67;;
32333;SDS011;18810;53.040;8.850;2023-12-04T02:45:22;50.67;;;20.92;;
32333;SDS011;18810;53.040;8.850;2023-12-04T02:47:48;42.00;;;22.45;;
32333;SDS011;18810;53.040;8.850;2023-12-04T02:50:14;48.97;;;21.95;;
32333;SDS011;18810;53.040;8.850;2023-12-04T02:52:40;47.65;;;22.63;;
32333;SDS011;18810;53.040;8.850;2023-12-04T02:55:05;47.40;;;22.10;;
32333;SDS011;18810;53.040;8.850;2023-12-04T02:57:31;45.05;;;21.45;;
32333;SDS011;18810;53.040;8.850;2023-12-04T02:59:57;49.70;;;22.00;;
32333;SDS011;18810;53.040;8.850;2023-12-04T03:02:23;43.47;;;21.83;;
32333;SDS011;18810;53.040;8.850;2023-12-04T03:04:49;40.55;;;21.42;;
32333;SDS011;18810;53.040;8.850;2023-12-04T03:07:14;44.53;;;21.15;;
32333;SDS011;18810;53.040;8.850;2023-12-04T03:09:40;39.80;;;20.08;;
32333;SDS011;18810;53.040;8.850;2023-12-04T03:12:06;43.55;;;20.67;;
32333;SDS011;18810;53.040;8.850;2023-12-04T03:14:31;45.08;;;21.25;;
32333;SDS011;18810;53.040;8.850;2023-12-04T03:16:57;46.55;;;21.35;;
32333;SDS011;18810;53.040;8.850;2023-12-04T03:19:23;45.95;;;21.23;;
32333;SDS011;18810;53.040;8.850;2023-12-04T03:21:49;49.88;;;21.50;;
32333;SDS011;18810;53.040;8.850;2023-12-04T03:24:14;49.72;;;21.77;;
32333;SDS011;18810;53.040;8.850;2023-12-04T03:26:40;47.83;;;21.70;;
32333;SDS011;18810;53.040;8.850;2023-12-04T03:29:06;46.10;;;20.48;;
32333;SDS011;18810;53.040;8.850;2023-12-04T03:31:31;46.47;;;21.33;;
32333;SDS011;18810;53.040;8.850;2023-12-04T03:33:59;44.35;;;19.95;;
32333;SDS011;18810;53.040;8.850;2023-12-04T03:36:25;46.15;;;21.20;;
32333;SDS011;18810;53.040;8.850;2023-12-04T03:38:50;43.83;;;20.13;;
32333;SDS011;18810;53.040;8.850;2023-12-04T03:41:16;50.13;;;21.05;;
32333;SDS011;18810;53.040;8.850;2023-12-04T03:43:42;45.13;;;20.00;;
32333;SDS011;18810;53.040;8.850;2023-12-04T03:46:08;47.65;;;21.50;;
32333;SDS011;18810;53.040;8.850;2023-12-04T03:48:34;42.72;;;19.70;;
32333;SDS011;18810;53.040;8.850;2023-12-04T03:50:59;39.40;;;20.73;;
32333;SDS011;18810;53.040;8.850;2023-12-04T03:53:26;41.75;;;19.23;;
32333;SDS011;18810;53.040;8.850;2023-12-04T03:55:52;38.55;;;18.42;;
32333;SDS011;18810;53.040;8.850;2023-12-04T03:58:18;43.70;;;19.95;;
32333;SDS011;18810;53.040;8.850;2023-12-04T04:00:43;39.97;;;18.25;;
32333;SDS011;18810;53.040;8.850;2023-12-04T04:03:09;40.67;;;20.35;;
32333;SDS011;18810;53.040;8.850;2023-12-04T04:05:35;43.80;;;20.10;;
32333;SDS011;18810;53.040;8.850;2023-12-04T04:08:01;49.97;;;21.65;;
32333;SDS011;18810;53.040;8.850;2023-12-04T04:10:27;43.15;;;19.63;;
32333;SDS011;18810;53.040;8.850;2023-12-04T04:12:53;39.40;;;17.77;;
32333;SDS011;18810;53.040;8.850;2023-12-04T04:15:18;44.38;;;20.65;;
32333;SDS011;18810;53.040;8.850;2023-12-04T04:17:44;48.28;;;20.25;;
32333;SDS011;18810;53.040;8.850;2023-12-04T04:20:10;41.85;;;19.15;;
32333;SDS011;18810;53.040;8.850;2023-12-04T04:22:37;41.78;;;18.67;;
32333;SDS011;18810;53.040;8.850;2023-12-04T04:25:05;49.92;;;19.55;;
32333;SDS011;18810;53.040;8.850;2023-12-04T04:27:32;41.30;;;19.10;;
32333;SDS011;18810;53.040;8.850;2023-12-04T04:29:58;37.72;;;18.27;;
32333;SDS011;18810;53.040;8.850;2023-12-04T04:32:23;41.88;;;18.88;;
32333;SDS011;18810;53.040;8.850;2023-12-04T04:34:49;41.92;;;18.92;;
32333;SDS011;18810;53.040;8.850;2023-12-04T04:37:15;41.83;;;19.15;;
32333;SDS011;18810;53.040;8.850;2023-12-04T04:39:41;39.58;;;18.30;;
32333;SDS011;18810;53.040;8.850;2023-12-04T04:42:06;42.00;;;19.38;;
32333;SDS011;18810;53.040;8.850;2023-12-04T04:44:32;38.60;;;18.17;;
32333;SDS011;18810;53.040;8.850;2023-12-04T04:46:58;36.45;;;17.23;;
32333;SDS011;18810;53.040;8.850;2023-12-04T04:49:24;41.25;;;18.25;;
32333;SDS011;18810;53.040;8.850;2023-12-04T04:51:49;40.45;;;18.52;;
32333;SDS011;18810;53.040;8.850;2023-12-04T04:54:15;43.17;;;20.02;;
32333;SDS011;18810;53.040;8.850;2023-12-04T04:56:41;35.50;;;17.48;;
32333;SDS011;18810;53.040;8.850;2023-12-04T04:59:06;39.28;;;18.92;;
32333;SDS011;18810;53.040;8.850;2023-12-04T05:01:32;34.78;;;17.83;;
32333;SDS011;18810;53.040;8.850;2023-12-04T05:03:58;38.10;;;18.70;;
32333;SDS011;18810;53.040;8.850;2023-12-04T05:06:23;37.13;;;17.83;;
32333;SDS011;18810;53.040;8.850;2023-12-04T05:08:49;42.60;;;19.27;;
32333;SDS011;18810;53.040;8.850;2023-12-04T05:11:18;35.20;;;17.73;;
32333;SDS011;18810;53.040;8.850;2023-12-04T05:13:47;42.25;;;19.98;;
32333;SDS011;18810;53.040;8.850;2023-12-04T05:16:13;41.03;;;18.42;;
32333;SDS011;18810;53.040;8.850;2023-12-04T05:18:39;41.08;;;19.17;;
32333;SDS011;18810;53.040;8.850;2023-12-04T05:21:08;42.97;;;18.52;;
32333;SDS011;18810;53.040;8.850;2023-12-04T05:23:35;41.55;;;18.83;;
32333;SDS011;18810;53.040;8.850;2023-12-04T05:26:01;42.00;;;18.90;;
32333;SDS011;18810;53.040;8.850;2023-12-04T05:28:27;41.90;;;18.48;;
32333;SDS011;18810;53.040;8.850;2023-12-04T05:30:53;41.00;;;18.55;;
32333;SDS011;18810;53.040;8.850;2023-12-04T05:33:18;41.40;;;19.77;;
32333;SDS011;18810;53.040;8.850;2023-12-04T05:35:44;39.30;;;19.10;;
32333;SDS011;18810;53.040;8.850;2023-12-04T05:38:11;40.90;;;19.02;;
32333;SDS011;18810;53.040;8.850;2023-12-04T05:40:37;40.15;;;18.92;;
32333;SDS011;18810;53.040;8.850;2023-12-04T05:43:02;43.55;;;19.40;;
32333;SDS011;18810;53.040;8.850;2023-12-04T05:45:28;47.20;;;20.40;;
32333;SDS011;18810;53.040;8.850;2023-12-04T05:47:54;39.65;;;19.70;;
32333;SDS011;18810;53.040;8.850;2023-12-04T05:50:22;40.75;;;19.77;;
32333;SDS011;18810;53.040;8.850;2023-12-04T05:52:48;50.80;;;21.85;;
32333;SDS011;18810;53.040;8.850;2023-12-04T05:55:14;46.55;;;19.45;;
32333;SDS011;18810;53.040;8.850;2023-12-04T05:57:40;42.28;;;20.77;;
32333;SDS011;18810;53.040;8.850;2023-12-04T06:00:06;41.83;;;20.92;;
32333;SDS011;18810;53.040;8.850;2023-12-04T06:02:39;44.53;;;20.42;;
32333;SDS011;18810;53.040;8.850;2023-12-04T06:05:05;44.53;;;19.65;;
32333;SDS011;18810;53.040;8.850;2023-12-04T06:07:32;43.22;;;20.67;;
32333;SDS011;18810;53.040;8.850;2023-12-04T06:09:58;41.13;;;20.15;;
32333;SDS011;18810;53.040;8.850;2023-12-04T06:12:24;42.42;;;21.35;;
32333;SDS011;18810;53.040;8.850;2023-12-04T06:14:49;45.75;;;20.73;;
32333;SDS011;18810;53.040;8.850;2023-12-04T06:17:16;44.75;;;20.63;;
32333;SDS011;18810;53.040;8.850;2023-12-04T06:19:41;45.15;;;21.35;;
32333;SDS011;18810;53.040;8.850;2023-12-04T06:22:07;41.25;;;20.95;;
32333;SDS011;18810;53.040;8.850;2023-12-04T06:24:33;45.10;;;19.55;;
32333;SDS011;18810;53.040;8.850;2023-12-04T06:26:59;44.80;;;21.58;;
32333;SDS011;18810;53.040;8.850;2023-12-04T06:29:25;45.58;;;21.52;;
32333;SDS011;18810;53.040;8.850;2023-12-04T06:31:51;46.33;;;22.45;;
32333;SDS011;18810;53.040;8.850;2023-12-04T06:34:18;49.15;;;22.40;;
32333;SDS011;18810;53.040;8.850;2023-12-04T06:36:43;43.72;;;21.40;;
32333;SDS011;18810;53.040;8.850;2023-12-04T06:39:11;49.75;;;23.23;;
32333;SDS011;18810;53.040;8.850;2023-12-04T06:41:38;49.50;;;21.92;;
32333;SDS011;18810;53.040;8.850;2023-12-04T06:44:05;45.40;;;22.27;;
32333;SDS011;18810;53.040;8.850;2023-12-04T06:46:31;42.58;;;20.23;;
32333;SDS011;18810;53.040;8.850;2023-12-04T06:49:02;44.30;;;20.50;;
32333;SDS011;18810;53.040;8.850;2023-12-04T06:51:31;46.08;;;20.23;;
32333;SDS011;18810;53.040;8.850;2023-12-04T06:53:57;44.58;;;20.08;;
32333;SDS011;18810;53.040;8.850;2023-12-04T06:56:23;46.28;;;21.17;;
32333;SDS011;18810;53.040;8.850;2023-12-04T06:58:50;42.25;;;20.55;;
32333;SDS011;18810;53.040;8.850;2023-12-04T07:01:15;48.97;;;21.92;;
32333;SDS011;18810;53.040;8.850;2023-12-04T07:03:41;45.45;;;21.33;;
32333;SDS011;18810;53.040;8.850;2023-12-04T07:06:07;42.00;;;19.05;;
32333;SDS011;18810;53.040;8.850;2023-12-04T07:08:33;50.20;;;22.40;;
32333;SDS011;18810;53.040;8.850;2023-12-04T07:10:58;46.47;;;21.17;;
32333;SDS011;18810;53.040;8.850;2023-12-04T07:13:24;48.05;;;21.38;;
32333;SDS011;18810;53.040;8.850;2023-12-04T07:15:50;47.50;;;21.55;;
32333;SDS011;18810;53.040;8.850;2023-12-04T07:18:16;46.40;;;21.92;;
32333;SDS011;18810;53.040;8.850;2023-12-04T07:20:42;50.30;;;21.58;;
32333;SDS011;18810;53.040;8.850;2023-12-04T07:23:07;46.38;;;21.25;;
32333;SDS011;18810;53.040;8.850;2023-12-04T07:25:33;51.95;;;21.60;;
32333;SDS011;18810;53.040;8.850;2023-12-04T07:27:59;41.83;;;19.50;;
32333;SDS011;18810;53.040;8.850;2023-12-04T07:30:25;44.90;;;19.63;;
32333;SDS011;18810;53.040;8.850;2023-12-04T07:32:51;44.72;;;21.20;;
32333;SDS011;18810;53.040;8.850;2023-12-04T07:35:18;47.00;;;21.65;;
32333;SDS011;18810;53.040;8.850;2023-12-04T07:37:44;47.50;;;21.83;;
32333;SDS011;18810;53.040;8.850;2023-12-04T07:40:10;42.78;;;20.05;;
32333;SDS011;18810;53.040;8.850;2023-12-04T07:42:36;40.00;;;19.33;;
32333;SDS011;18810;53.040;8.850;2023-12-04T07:45:02;40.30;;;19.73;;
32333;SDS011;18810;53.040;8.850;2023-12-04T07:47:28;46.08;;;19.98;;
32333;SDS011;18810;53.040;8.850;2023-12-04T07:49:54;39.10;;;19.23;;
32333;SDS011;18810;53.040;8.850;2023-12-04T07:52:20;37.53;;;18.67;;
32333;SDS011;18810;53.040;8.850;2023-12-04T07:54:45;38.75;;;18.77;;
32333;SDS011;18810;53.040;8.850;2023-12-04T07:57:11;40.20;;;18.20;;
32333;SDS011;18810;53.040;8.850;2023-12-04T07:59:37;39.60;;;19.25;;
32333;SDS011;18810;53.040;8.850;2023-12-04T08:02:02;38.10;;;17.85;;
32333;SDS011;18810;53.040;8.850;2023-12-04T08:04:29;38.28;;;18.25;;
32333;SDS011;18810;53.040;8.850;2023-12-04T08:06:54;37.47;;;17.85;;
32333;SDS011;18810;53.040;8.850;2023-12-04T08:09:20;38.72;;;17.92;;
32333;SDS011;18810;53.040;8.850;2023-12-04T08:11:46;36.55;;;16.85;;
32333;SDS011;18810;53.040;8.850;2023-12-04T08:14:12;31.73;;;16.00;;
32333;SDS011;18810;53.040;8.850;2023-12-04T08:16:38;33.65;;;15.85;;
32333;SDS011;18810;53.040;8.850;2023-12-04T08:19:03;33.25;;;17.08;;
32333;SDS011;18810;53.040;8.850;2023-12-04T08:21:29;33.55;;;16.83;;
32333;SDS011;18810;53.040;8.850;2023-12-04T08:23:55;32.05;;;16.50;;
32333;SDS011;18810;53.040;8.850;2023-12-04T08:26:23;34.65;;;17.88;;
32333;SDS011;18810;53.040;8.850;2023-12-04T08:28:50;38.92;;;17.92;;
32333;SDS011;18810;53.040;8.850;2023-12-04T08:31:19;37.55;;;18.35;;
32333;SDS011;18810;53.040;8.850;2023-12-04T08:33:45;42.08;;;24.70;;
32333;SDS011;18810;53.040;8.850;2023-12-04T08:36:11;30.58;;;17.58;;
32333;SDS011;18810;53.040;8.850;2023-12-04T08:38:37;39.85;;;21.30;;
32333;SDS011;18810;53.040;8.850;2023-12-04T08:41:03;40.20;;;20.88;;
32333;SDS011;18810;53.040;8.850;2023-12-04T08:43:30;38.67;;;20.00;;
32333;SDS011;18810;53.040;8.850;2023-12-04T08:45:56;35.50;;;18.13;;
32333;SDS011;18810;53.040;8.850;2023-12-04T08:48:22;33.58;;;16.65;;
32333;SDS011;18810;53.040;8.850;2023-12-04T08:50:48;33.35;;;17.13;;
32333;SDS011;18810;53.040;8.850;2023-12-04T08:53:13;30.80;;;16.30;;
32333;SDS011;18810;53.040;8.850;2023-12-04T08:55:39;33.10;;;16.15;;
32333;SDS011;18810;53.040;8.850;2023-12-04T08:58:05;33.17;;;17.23;;
32333;SDS011;18810;53.040;8.850;2023-12-04T09:00:31;33.42;;;16.65;;
32333;SDS011;18810;53.040;8.850;2023-12-04T09:02:58;32.72;;;17.27;;
32333;SDS011;18810;53.040;8.850;2023-12-04T09:05:25;30.98;;;16.70;;
32333;SDS011;18810;53.040;8.850;2023-12-04T09:07:50;34.55;;;17.25;;
32333;SDS011;18810;53.040;8.850;2023-12-04T09:10:16;26.58;;;15.07;;
32333;SDS011;18810;53.040;8.850;2023-12-04T09:12:42;30.02;;;15.98;;
32333;SDS011;18810;53.040;8.850;2023-12-04T09:15:07;31.55;;;16.98;;
32333;SDS011;18810;53.040;8.850;2023-12-04T09:17:33;29.95;;;16.50;;
32333;SDS011;18810;53.040;8.850;2023-12-04T09:19:59;30.95;;;15.85;;
32333;SDS011;18810;53.040;8.850;2023-12-04T09:22:25;28.13;;;15.00;;
32333;SDS011;18810;53.040;8.850;2023-12-04T09:24:50;29.98;;;16.42;;
32333;SDS011;18810;53.040;8.850;2023-12-04T09:27:16;31.52;;;16.55;;
32333;SDS011;18810;53.040;8.850;2023-12-04T09:29:42;31.08;;;16.10;;
32333;SDS011;18810;53.040;8.850;2023-12-04T09:32:08;29.83;;;15.93;;
32333;SDS011;18810;53.040;8.850;2023-12-04T09:34:35;26.98;;;14.80;;
32333;SDS011;18810;53.040;8.850;2023-12-04T09:37:01;31.38;;;15.93;;
32333;SDS011;18810;53.040;8.850;2023-12-04T09:39:27;29.02;;;15.90;;
32333;SDS011;18810;53.040;8.850;2023-12-04T09:41:53;28.10;;;14.57;;
32333;SDS011;18810;53.040;8.850;2023-12-04T09:44:21;31.00;;;15.48;;
32333;SDS011;18810;53.040;8.850;2023-12-04T09:46:49;28.77;;;15.32;;
32333;SDS011;18810;53.040;8.850;2023-12-04T09:49:16;30.55;;;15.15;;
32333;SDS011;18810;53.040;8.850;2023-12-04T09:51:43;28.77;;;15.13;;
32333;SDS011;18810;53.040;8.850;2023-12-04T09:54:09;27.95;;;14.68;;
32333;SDS011;18810;53.040;8.850;2023-12-04T09:56:36;30.73;;;14.85;;
32333;SDS011;18810;53.040;8.850;2023-12-04T09:59:03;28.70;;;14.95;;
32333;SDS011;18810;53.040;8.850;2023-12-04T10:01:32;30.75;;;15.45;;
32333;SDS011;18810;53.040;8.850;2023-12-04T10:03:59;25.58;;;14.57;;
32333;SDS011;18810;53.040;8.850;2023-12-04T10:06:27;26.67;;;14.90;;
32333;SDS011;18810;53.040;8.850;2023-12-04T10:08:56;31.30;;;15.02;;
32333;SDS011;18810;53.040;8.850;2023-12-04T10:11:25;28.70;;;15.98;;
32333;SDS011;18810;53.040;8.850;2023-12-04T10:13:52;27.80;;;14.48;;
32333;SDS011;18810;53.040;8.850;2023-12-04T10:16:31;30.02;;;15.07;;
32333;SDS011;18810;53.040;8.850;2023-12-04T10:19:09;26.15;;;14.45;;
32333;SDS011;18810;53.040;8.850;2023-12-04T10:21:40;23.83;;;14.77;;
32333;SDS011;18810;53.040;8.850;2023-12-04T10:24:06;25.55;;;14.45;;
32333;SDS011;18810;53.040;8.850;2023-12-04T10:26:33;28.27;;;15.45;;
32333;SDS011;18810;53.040;8.850;2023-12-04T10:29:00;28.92;;;14.68;;
32333;SDS011;18810;53.040;8.850;2023-12-04T10:31:31;23.65;;;13.32;;
32333;SDS011;18810;53.040;8.850;2023-12-04T10:33:58;27.33;;;15.00;;
32333;SDS011;18810;53.040;8.850;2023-12-04T10:36:24;27.52;;;13.82;;
32333;SDS011;18810;53.040;8.850;2023-12-04T10:38:59;26.23;;;14.00;;
32333;SDS011;18810;53.040;8.850;2023-12-04T10:41:26;24.33;;;14.20;;
32333;SDS011;18810;53.040;8.850;2023-12-04T10:43:52;26.25;;;14.75;;
32333;SDS011;18810;53.040;8.850;2023-12-04T10:46:18;27.90;;;14.77;;
32333;SDS011;18810;53.040;8.850;2023-12-04T10:48:44;25.88;;;14.50;;
32333;SDS011;18810;53.040;8.850;2023-12-04T10:51:12;23.77;;;13.35;;
32333;SDS011;18810;53.040;8.850;2023-12-04T10:53:38;26.50;;;13.95;;
32333;SDS011;18810;53.040;8.850;2023-12-04T10:56:09;25.10;;;13.38;;
32333;SDS011;18810;53.040;8.850;2023-12-04T10:58:40;26.85;;;14.43;;
32333;SDS011;18810;53.040;8.850;2023-12-04T11:01:07;24.13;;;13.75;;
32333;SDS011;18810;53.040;8.850;2023-12-04T11:03:49;22.77;;;13.35;;
32333;SDS011;18810;53.040;8.850;2023-12-04T11:06:21;23.58;;;12.98;;
32333;SDS011;18810;53.040;8.850;2023-12-04T11:08:48;24.63;;;13.60;;
32333;SDS011;18810;53.040;8.850;2023-12-04T11:11:19;23.60;;;13.50;;
32333;SDS011;18810;53.040;8.850;2023-12-04T11:13:51;24.23;;;13.35;;
32333;SDS011;18810;53.040;8.850;2023-12-04T11:21:58;24.40;;;13.88;;
32333;SDS011;18810;53.040;8.850;2023-12-04T11:24:24;27.38;;;15.57;;
32333;SDS011;18810;53.040;8.850;2023-12-04T11:26:50;24.45;;;14.13;;
32333;SDS011;18810;53.040;8.850;2023-12-04T11:29:17;25.15;;;14.30;;
32333;SDS011;18810;53.040;8.850;2023-12-04T11:31:43;25.60;;;13.68;;
32333;SDS011;18810;53.040;8.850;2023-12-04T11:34:11;25.60;;;14.35;;
32333;SDS011;18810;53.040;8.850;2023-12-04T11:36:37;25.55;;;13.80;;
32333;SDS011;18810;53.040;8.850;2023-12-04T11:39:07;26.05;;;14.68;;
32333;SDS011;18810;53.040;8.850;2023-12-04T11:41:36;27.60;;;14.23;;
32333;SDS011;18810;53.040;8.850;2023-12-04T11:44:02;26.30;;;14.23;;
32333;SDS011;18810;53.040;8.850;2023-12-04T11:46:29;26.48;;;13.82;;
32333;SDS011;18810;53.040;8.850;2023-12-04T11:52:06;27.63;;;14.90;;
32333;SDS011;18810;53.040;8.850;2023-12-04T11:57:25;26.65;;;15.18;;
32333;SDS011;18810;53.040;8.850;2023-12-04T12:05:20;31.67;;;17.02;;
32333;SDS011;18810;53.040;8.850;2023-12-04T12:07:46;28.30;;;15.32;;
32333;SDS011;18810;53.040;8.850;2023-12-04T12:10:12;27.10;;;15.13;;
32333;SDS011;18810;53.040;8.850;2023-12-04T12:12:44;26.23;;;15.00;;
32333;SDS011;18810;53.040;8.850;2023-12-04T12:15:10;24.88;;;15.18;;
32333;SDS011;18810;53.040;8.850;2023-12-04T12:17:38;24.55;;;14.32;;
32333;SDS011;18810;53.040;8.850;2023-12-04T12:20:08;25.25;;;14.70;;
32333;SDS011;18810;53.040;8.850;2023-12-04T12:25:03;24.58;;;14.38;;
32333;SDS011;18810;53.040;8.850;2023-12-04T12:27:30;22.40;;;13.57;;
32333;SDS011;18810;53.040;8.850;2023-12-04T12:29:56;27.73;;;14.68;;
32333;SDS011;18810;53.040;8.850;2023-12-04T12:32:21;25.30;;;14.57;;
32333;SDS011;18810;53.040;8.850;2023-12-04T12:34:47;25.10;;;14.32;;
32333;SDS011;18810;53.040;8.850;2023-12-04T12:37:13;22.83;;;13.82;;
32333;SDS011;18810;53.040;8.850;2023-12-04T12:39:39;23.52;;;14.50;;
32333;SDS011;18810;53.040;8.850;2023-12-04T12:42:05;25.35;;;15.15;;
32333;SDS011;18810;53.040;8.850;2023-12-04T12:44:39;26.05;;;14.43;;
32333;SDS011;18810;53.040;8.850;2023-12-04T12:47:06;24.45;;;14.63;;
32333;SDS011;18810;53.040;8.850;2023-12-04T12:49:34;24.17;;;14.63;;
32333;SDS011;18810;53.040;8.850;2023-12-04T12:52:02;25.60;;;14.05;;
32333;SDS011;18810;53.040;8.850;2023-12-04T12:54:30;24.45;;;14.15;;
32333;SDS011;18810;53.040;8.850;2023-12-04T12:56:58;27.88;;;14.95;;
32333;SDS011;18810;53.040;8.850;2023-12-04T12:59:25;24.05;;;14.18;;
32333;SDS011;18810;53.040;8.850;2023-12-04T13:01:52;24.85;;;14.15;;
32333;SDS011;18810;53.040;8.850;2023-12-04T13:04:18;27.77;;;14.40;;
32333;SDS011;18810;53.040;8.850;2023-12-04T13:06:44;24.02;;;14.05;;
32333;SDS011;18810;53.040;8.850;2023-12-04T13:09:11;28.35;;;16.30;;
32333;SDS011;18810;53.040;8.850;2023-12-04T13:11:43;29.05;;;14.77;;
32333;SDS011;18810;53.040;8.850;2023-12-04T13:14:12;25.40;;;14.50;;
32333;SDS011;18810;53.040;8.850;2023-12-04T13:16:38;27.40;;;14.82;;
32333;SDS011;18810;53.040;8.850;2023-12-04T13:19:04;25.10;;;14.73;;
32333;SDS011;18810;53.040;8.850;2023-12-04T13:21:30;22.75;;;14.05;;
32333;SDS011;18810;53.040;8.850;2023-12-04T13:23:56;25.55;;;14.15;;
32333;SDS011;18810;53.040;8.850;2023-12-04T13:26:22;20.55;;;13.48;;
32333;SDS011;18810;53.040;8.850;2023-12-04T13:28:48;26.98;;;14.55;;
32333;SDS011;18810;53.040;8.850;2023-12-04T13:31:14;27.75;;;15.40;;
32333;SDS011;18810;53.040;8.850;2023-12-04T13:33:40;25.70;;;14.32;;
32333;SDS011;18810;53.040;8.850;2023-12-04T13:36:08;24.23;;;13.73;;
32333;SDS011;18810;53.040;8.850;2023-12-04T13:38:34;26.38;;;14.18;;
32333;SDS011;18810;53.040;8.850;2023-12-04T13:41:00;32.47;;;17.45;;
32333;SDS011;18810;53.040;8.850;2023-12-04T13:43:44;21.75;;;13.20;;
32333;SDS011;18810;53.040;8.850;2023-12-04T13:46:15;23.35;;;14.27;;
32333;SDS011;18810;53.040;8.850;2023-12-04T13:48:41;28.92;;;14.77;;
32333;SDS011;18810;53.040;8.850;2023-12-04T13:51:10;25.70;;;14.02;;
32333;SDS011;18810;53.040;8.850;2023-12-04T13:53:37;27.70;;;15.00;;
32333;SDS011;18810;53.040;8.850;2023-12-04T13:56:11;24.40;;;13.68;;
32333;SDS011;18810;53.040;8.850;2023-12-04T13:58:54;22.55;;;13.00;;
32333;SDS011;18810;53.040;8.850;2023-12-04T14:01:24;22.13;;;13.23;;
32333;SDS011;18810;53.040;8.850;2023-12-04T14:03:53;23.15;;;13.68;;
32333;SDS011;18810;53.040;8.850;2023-12-04T14:06:21;24.70;;;13.40;;
32333;SDS011;18810;53.040;8.850;2023-12-04T14:08:47;20.88;;;13.48;;
32333;SDS011;18810;53.040;8.850;2023-12-04T14:11:13;25.23;;;14.75;;
32333;SDS011;18810;53.040;8.850;2023-12-04T14:13:39;23.33;;;13.80;;
32333;SDS011;18810;53.040;8.850;2023-12-04T14:16:05;22.63;;;13.95;;
32333;SDS011;18810;53.040;8.850;2023-12-04T14:18:31;22.02;;;13.00;;
32333;SDS011;18810;53.040;8.850;2023-12-04T14:21:00;22.70;;;13.02;;
32333;SDS011;18810;53.040;8.850;2023-12-04T14:23:27;23.25;;;13.38;;
32333;SDS011;18810;53.040;8.850;2023-12-04T14:25:52;22.48;;;12.88;;
32333;SDS011;18810;53.040;8.850;2023-12-04T14:28:18;23.10;;;12.57;;
32333;SDS011;18810;53.040;8.850;2023-12-04T14:30:45;23.98;;;13.65;;
32333;SDS011;18810;53.040;8.850;2023-12-04T14:33:10;22.60;;;13.82;;
32333;SDS011;18810;53.040;8.850;2023-12-04T14:35:36;20.55;;;12.60;;
32333;SDS011;18810;53.040;8.850;2023-12-04T14:38:02;23.10;;;12.50;;